Time;durP1;ratioP1;P1;durP2;ratioP2;P2;SDS_P1;SDS_P2;PMS_P1;PMS_P2;Temp;Humidity;BMP_temperature;BMP_pressure;BME280_temperature;BME280_humidity;BME280_pressure;Samples;Min_cycle;Max_cycle;Signal;HPM_P1;HPM_P2
2023/05/13 00:00:08;;;;;;;10.10;6.90;;;;;;;10.44;100.00;101046.69;686200;28;1227;-61
2023/05/13 00:00:28;;;;;;;10.77;7.43;;;;;;;10.42;100.00;101051.03;687737;28;1577;-60
2023/05/13 00:00:50;;;;;;;9.57;7.40;;;;;;;10.39;100.00;101043.19;687473;28;1468;-60
2023/05/13 00:01:10;;;;;;;10.70;7.20;;;;;;;10.34;100.00;101043.19;684187;28;4395;-60
2023/05/13 00:01:32;;;;;;;9.07;6.93;;;;;;;10.33;100.00;101051.84;684441;28;1597;-60
2023/05/13 00:01:52;;;;;;;8.52;7.20;;;;;;;10.32;100.00;101051.84;683168;28;1774;-60
2023/05/13 00:02:12;;;;;;;9.27;7.20;;;;;;;10.30;100.00;101046.63;683536;28;1406;-62
2023/05/13 00:02:33;;;;;;;9.63;7.20;;;;;;;10.30;100.00;101045.75;684917;28;1455;-62
2023/05/13 00:02:53;;;;;;;8.82;6.75;;;;;;;10.31;100.00;101047.50;683465;28;1383;-60
2023/05/13 00:03:13;;;;;;;9.03;6.60;;;;;;;10.30;100.00;101045.75;687841;28;1473;-60
2023/05/13 00:03:34;;;;;;;9.27;6.67;;;;;;;10.31;100.00;101047.50;687072;28;1336;-60
2023/05/13 00:03:54;;;;;;;8.57;6.80;;;;;;;10.30;100.00;101051.84;686051;28;1264;-61
2023/05/13 00:04:15;;;;;;;9.10;7.03;;;;;;;10.29;100.00;101044.88;688302;28;4278;-62
2023/05/13 00:04:35;;;;;;;9.05;7.25;;;;;;;10.27;100.00;101048.34;690040;28;1536;-61
2023/05/13 00:04:55;;;;;;;9.67;7.60;;;;;;;10.26;100.00;101049.22;685948;28;1283;-60
2023/05/13 00:05:16;;;;;;;8.57;6.68;;;;;;;10.25;100.00;101047.50;687805;28;1195;-61
2023/05/13 00:05:37;;;;;;;8.33;7.10;;;;;;;10.27;100.00;101056.19;687633;28;1446;-59
2023/05/13 00:05:57;;;;;;;10.65;7.32;;;;;;;10.28;100.00;101048.34;686023;28;1267;-60
2023/05/13 00:06:18;;;;;;;9.35;7.00;;;;;;;10.27;100.00;101040.50;687840;28;1454;-60
2023/05/13 00:06:38;;;;;;;9.20;7.23;;;;;;;10.27;100.00;101045.75;687534;28;1533;-60
2023/05/13 00:06:59;;;;;;;9.23;7.05;;;;;;;10.22;100.00;101043.97;688884;28;1212;-61
2023/05/13 00:07:19;;;;;;;10.73;7.00;;;;;;;10.22;100.00;101048.34;689888;28;4498;-60
2023/05/13 00:07:40;;;;;;;10.93;6.93;;;;;;;10.22;100.00;101043.97;690454;28;1482;-61
2023/05/13 00:08:05;;;;;;;9.05;6.85;;;;;;;10.22;100.00;101041.38;688967;28;1220;-60
2023/05/13 00:08:26;;;;;;;9.02;7.28;;;;;;;10.21;100.00;101044.84;690381;28;1592;-60
2023/05/13 00:08:46;;;;;;;8.43;6.80;;;;;;;10.20;100.00;101045.72;690485;28;1334;-60
2023/05/13 00:09:06;;;;;;;8.57;7.20;;;;;;;10.17;100.00;101044.84;689273;28;1390;-61
2023/05/13 00:09:27;;;;;;;7.77;6.97;;;;;;;10.16;100.00;101048.31;690569;28;1410;-61
2023/05/13 00:09:47;;;;;;;7.45;6.55;;;;;;;10.15;100.00;101039.63;690679;28;1470;-60
2023/05/13 00:10:10;;;;;;;7.83;6.87;;;;;;;10.14;100.00;101045.69;687999;28;4719;-60
2023/05/13 00:10:31;;;;;;;10.25;6.97;;;;;;;10.16;100.00;101043.97;689888;28;1382;-62
2023/05/13 00:10:51;;;;;;;11.40;7.13;;;;;;;10.16;100.00;101041.38;689242;28;1735;-62
2023/05/13 00:11:12;;;;;;;11.00;7.30;;;;;;;10.17;100.00;101043.09;690430;28;1596;-60
2023/05/13 00:11:33;;;;;;;8.80;7.00;;;;;;;10.13;100.00;101043.94;689948;28;1643;-60
2023/05/13 00:11:53;;;;;;;8.82;6.57;;;;;;;10.20;100.00;101045.72;688704;28;1338;-61
2023/05/13 00:12:14;;;;;;;8.80;7.30;;;;;;;10.25;100.00;101042.25;690187;28;1382;-61
2023/05/13 00:12:34;;;;;;;9.52;7.20;;;;;;;10.22;100.00;101041.38;690345;28;1486;-61
2023/05/13 00:12:54;;;;;;;9.23;7.00;;;;;;;10.23;100.00;101047.47;688845;28;1371;-60
2023/05/13 00:13:15;;;;;;;9.25;6.63;;;;;;;10.22;100.00;101043.13;689619;28;4439;-60
2023/05/13 00:13:35;;;;;;;9.73;6.70;;;;;;;10.20;100.00;101043.13;689862;28;1588;-60
2023/05/13 00:13:56;;;;;;;9.93;7.00;;;;;;;10.18;100.00;101042.22;689023;28;1323;-61
2023/05/13 00:14:16;;;;;;;9.60;6.93;;;;;;;10.18;100.00;101051.81;690374;28;1572;-60
2023/05/13 00:14:37;;;;;;;9.17;7.07;;;;;;;10.17;100.00;101042.22;689789;28;1441;-60
2023/05/13 00:14:57;;;;;;;9.63;7.13;;;;;;;10.15;100.00;101047.44;688793;28;1363;-60
2023/05/13 00:15:18;;;;;;;8.17;6.80;;;;;;;10.14;100.00;101045.69;687530;28;1418;-60
2023/05/13 00:15:39;;;;;;;8.60;6.90;;;;;;;10.16;100.00;101046.59;687230;28;1209;-61
2023/05/13 00:15:59;;;;;;;8.50;6.80;;;;;;;10.16;100.00;101049.22;686380;28;1295;-61
2023/05/13 00:16:22;;;;;;;8.23;6.43;;;;;;;10.14;100.00;101040.47;687008;28;4552;-60
2023/05/13 00:16:43;;;;;;;8.32;6.47;;;;;;;10.12;100.00;101047.44;687184;28;1419;-61
2023/05/13 00:17:03;;;;;;;7.85;6.40;;;;;;;10.14;100.00;101044.84;686650;28;1240;-60
2023/05/13 00:17:24;;;;;;;8.30;6.33;;;;;;;10.11;100.00;101043.09;690218;28;1259;-60
2023/05/13 00:17:45;;;;;;;9.40;6.70;;;;;;;10.09;100.00;101041.34;690120;28;1302;-60
2023/05/13 00:18:05;;;;;;;8.55;6.70;;;;;;;10.11;100.00;101050.94;688968;28;1239;-60
2023/05/13 00:18:26;;;;;;;7.73;6.73;;;;;;;10.19;100.00;101041.38;690200;28;1520;-61
2023/05/13 00:18:46;;;;;;;8.65;7.28;;;;;;;10.22;100.00;101050.97;689912;28;1438;-62
2023/05/13 00:19:07;;;;;;;9.13;7.23;;;;;;;10.22;100.00;101040.50;687802;28;4319;-60
2023/05/13 00:19:27;;;;;;;10.52;6.82;;;;;;;10.20;100.00;101044.84;688254;28;1382;-62
2023/05/13 00:19:47;;;;;;;10.90;6.90;;;;;;;10.19;100.00;101043.97;687893;28;3210;-62
2023/05/13 00:20:08;;;;;;;9.87;6.97;;;;;;;10.16;100.00;101043.97;687211;28;1662;-61
2023/05/13 00:20:28;;;;;;;8.70;6.70;;;;;;;10.14;100.00;101040.47;687183;28;1657;-60
2023/05/13 00:20:49;;;;;;;8.03;6.93;;;;;;;10.13;100.00;101043.09;687491;28;1301;-61
2023/05/13 00:21:09;;;;;;;8.20;6.63;;;;;;;10.09;100.00;101036.97;687293;28;1628;-61
2023/05/13 00:21:30;;;;;;;10.40;6.73;;;;;;;10.11;100.00;101044.84;688582;28;1623;-60
2023/05/13 00:21:51;;;;;;;12.07;6.95;;;;;;;10.08;100.00;101040.47;687257;28;1576;-62
2023/05/13 00:22:11;;;;;;;10.80;6.80;;;;;;;10.07;100.00;101050.91;689143;28;4275;-60
2023/05/13 00:22:32;;;;;;;9.57;6.88;;;;;;;10.04;100.00;101049.16;688594;28;1364;-60
2023/05/13 00:22:52;;;;;;;8.67;6.93;;;;;;;10.04;100.00;101043.94;686289;28;1739;-61
2023/05/13 00:23:13;;;;;;;8.57;6.55;;;;;;;10.09;100.00;101042.19;684180;28;1455;-61
2023/05/13 00:23:36;;;;;;;8.15;6.90;;;;;;;10.11;100.00;101040.47;682324;29;1455;-60
2023/05/13 00:23:57;;;;;;;8.38;6.90;;;;;;;10.07;100.00;101054.38;680669;28;1420;-62
2023/05/13 00:24:17;;;;;;;8.98;6.90;;;;;;;10.05;100.00;101040.44;679678;29;1440;-60
2023/05/13 00:24:38;;;;;;;7.47;6.53;;;;;;;10.02;100.00;101043.94;679997;29;1526;-62
2023/05/13 00:24:58;;;;;;;8.00;6.60;;;;;;;10.01;100.00;101046.50;681238;28;1582;-61
2023/05/13 00:25:18;;;;;;;9.20;7.10;;;;;;;9.99;100.00;101045.66;681373;29;4533;-60
2023/05/13 00:25:40;;;;;;;8.77;7.07;;;;;;;9.94;100.00;101052.59;682086;28;1459;-60
2023/05/13 00:26:01;;;;;;;9.48;7.35;;;;;;;9.96;100.00;101050.88;680846;28;1440;-60
2023/05/13 00:26:21;;;;;;;11.38;7.50;;;;;;;9.99;100.00;101040.44;685083;28;1422;-60
2023/05/13 00:26:43;;;;;;;10.02;7.03;;;;;;;10.03;100.00;101045.66;684789;28;1509;-61
2023/05/13 00:27:03;;;;;;;10.03;7.13;;;;;;;10.03;100.00;101047.41;683270;28;1604;-61
2023/05/13 00:27:24;;;;;;;10.55;7.30;;;;;;;10.00;100.00;101044.78;684613;28;1455;-61
2023/05/13 00:27:44;;;;;;;10.93;7.27;;;;;;;9.98;100.00;101043.91;687570;28;1446;-60
2023/05/13 00:28:05;;;;;;;9.60;7.05;;;;;;;9.95;100.00;101049.13;685365;28;4777;-61
2023/05/13 00:28:25;;;;;;;8.63;7.10;;;;;;;9.95;100.00;101049.13;687486;28;1411;-62
2023/05/13 00:28:46;;;;;;;9.27;6.90;;;;;;;10.00;100.00;101036.97;687817;28;1553;-62
2023/05/13 00:29:06;;;;;;;9.90;7.30;;;;;;;10.02;100.00;101050.88;686063;28;1522;-60
2023/05/13 00:29:26;;;;;;;9.93;7.78;;;;;;;10.01;100.00;101041.28;687245;28;1525;-60
2023/05/13 00:29:47;;;;;;;10.00;7.67;;;;;;;9.98;100.00;101050.00;688045;28;1470;-61
2023/05/13 00:30:08;;;;;;;9.23;7.20;;;;;;;9.95;100.00;101051.72;686159;28;1276;-61
2023/05/13 00:30:29;;;;;;;9.07;7.10;;;;;;;9.97;100.00;101048.25;688111;28;1540;-60
2023/05/13 00:30:49;;;;;;;8.87;6.70;;;;;;;9.95;100.00;101044.75;685018;28;1403;-60
2023/05/13 00:31:10;;;;;;;8.93;7.13;;;;;;;9.91;100.00;101052.59;683924;28;4399;-62
2023/05/13 00:31:32;;;;;;;8.93;7.63;;;;;;;9.92;100.00;101054.34;687662;28;1583;-60
2023/05/13 00:31:53;;;;;;;9.73;7.38;;;;;;;9.92;100.00;101047.38;687307;28;2163;-62
2023/05/13 00:32:13;;;;;;;8.55;6.97;;;;;;;9.92;100.00;101052.59;686416;28;1521;-60
2023/05/13 00:32:34;;;;;;;9.00;7.30;;;;;;;9.88;100.00;101045.59;685363;28;1379;-60
2023/05/13 00:32:54;;;;;;;9.32;7.30;;;;;;;9.87;100.00;101046.47;681652;28;1475;-61
2023/05/13 00:33:14;;;;;;;8.80;7.17;;;;;;;9.86;100.00;101048.22;682165;29;1364;-62
2023/05/13 00:33:35;;;;;;;10.10;7.60;;;;;;;9.86;100.00;101050.81;679192;29;1498;-61
2023/05/13 00:33:55;;;;;;;9.67;7.50;;;;;;;9.85;100.00;101053.44;681355;28;1455;-60
2023/05/13 00:34:17;;;;;;;10.10;7.50;;;;;;;9.85;100.00;101054.28;685392;28;4319;-60
2023/05/13 00:34:37;;;;;;;10.52;7.43;;;;;;;9.85;100.00;101054.28;687001;28;1473;-62
2023/05/13 00:34:58;;;;;;;7.95;6.85;;;;;;;9.86;100.00;101050.81;685592;28;1801;-60
2023/05/13 00:35:19;;;;;;;9.87;7.13;;;;;;;9.86;100.00;101058.66;682185;29;1491;-61
2023/05/13 00:35:39;;;;;;;9.68;7.57;;;;;;;9.84;100.00;101052.56;681617;29;1471;-60
2023/05/13 00:36:00;;;;;;;11.85;7.75;;;;;;;9.83;100.00;101052.53;677795;29;1664;-60
2023/05/13 00:36:20;;;;;;;11.97;7.53;;;;;;;9.81;100.00;101056.91;680067;29;1475;-62
2023/05/13 00:36:40;;;;;;;9.90;7.10;;;;;;;9.80;100.00;101056.03;682421;28;1483;-62
2023/05/13 00:37:03;;;;;;;8.90;7.30;;;;;;;9.82;100.00;101054.28;677552;28;1570;-61
2023/05/13 00:37:24;;;;;;;8.82;7.25;;;;;;;9.81;100.00;101057.75;684340;28;4553;-60
2023/05/13 00:37:44;;;;;;;10.07;7.27;;;;;;;9.81;100.00;101062.97;683401;28;1397;-60
2023/05/13 00:38:05;;;;;;;10.13;7.60;;;;;;;9.79;100.00;101058.59;683405;28;1663;-62
2023/05/13 00:38:26;;;;;;;9.63;7.65;;;;;;;9.80;100.00;101061.25;685822;28;3070;-60
2023/05/13 00:38:46;;;;;;;9.68;7.53;;;;;;;9.79;100.00;101058.59;684303;28;1446;-60
2023/05/13 00:39:06;;;;;;;10.43;7.83;;;;;;;9.77;100.00;101056.00;680670;28;1983;-62
2023/05/13 00:39:27;;;;;;;9.60;7.53;;;;;;;9.76;100.00;101061.22;682129;29;1304;-61
2023/05/13 00:39:48;;;;;;;9.40;7.13;;;;;;;9.77;100.00;101065.56;683842;28;1463;-60
2023/05/13 00:40:23;;;;;;;9.90;7.20;;;;;;;9.77;100.00;101061.22;679932;28;4613;-61
2023/05/13 00:40:44;;;;;;;9.70;7.22;;;;;;;9.78;100.00;101060.34;683087;28;1395;-62
2023/05/13 00:41:07;;;;;;;10.50;7.10;;;;;;;9.79;100.00;101058.59;682775;28;1596;-61
2023/05/13 00:41:27;;;;;;;10.68;7.43;;;;;;;9.78;100.00;101062.97;683158;28;1605;-62
2023/05/13 00:41:48;;;;;;;8.73;6.80;;;;;;;9.79;100.00;101063.81;684473;28;1728;-61
2023/05/13 00:42:11;;;;;;;9.43;7.07;;;;;;;9.80;100.00;101061.25;682596;28;1526;-60
2023/05/13 00:42:31;;;;;;;10.20;7.03;;;;;;;9.83;100.00;101065.59;685042;28;1603;-60
2023/05/13 00:42:54;;;;;;;10.00;7.10;;;;;;;9.81;100.00;101062.13;684273;28;1615;-61
2023/05/13 00:43:14;;;;;;;10.05;6.90;;;;;;;9.80;100.00;101066.47;684235;28;4485;-60
2023/05/13 00:43:34;;;;;;;8.90;6.88;;;;;;;9.81;100.00;101068.19;685559;28;1422;-61
2023/05/13 00:43:55;;;;;;;8.90;6.80;;;;;;;9.81;100.00;101062.97;686567;28;1590;-61
2023/05/13 00:44:16;;;;;;;8.88;6.70;;;;;;;9.82;100.00;101064.72;688235;28;1561;-61
2023/05/13 00:44:37;;;;;;;10.87;7.17;;;;;;;9.81;100.00;101056.91;687241;28;1350;-60
2023/05/13 00:44:57;;;;;;;8.40;7.05;;;;;;;9.79;100.00;101064.72;685827;28;1793;-61
2023/05/13 00:45:18;;;;;;;8.40;6.97;;;;;;;9.76;100.00;101059.50;688004;28;1446;-62
2023/05/13 00:45:38;;;;;;;8.40;6.80;;;;;;;9.78;100.00;101062.09;690315;28;1390;-61
2023/05/13 00:45:58;;;;;;;9.13;7.10;;;;;;;9.77;100.00;101060.34;688391;28;1742;-62
2023/05/13 00:46:19;;;;;;;8.30;7.13;;;;;;;9.76;100.00;101059.50;689785;28;4451;-60
2023/05/13 00:46:39;;;;;;;7.97;6.82;;;;;;;9.74;100.00;101061.22;690212;28;1255;-60
2023/05/13 00:47:00;;;;;;;9.50;7.10;;;;;;;9.71;100.00;101061.19;688588;28;1532;-60
2023/05/13 00:47:21;;;;;;;8.52;6.80;;;;;;;9.70;100.00;101062.06;690795;28;1489;-60
2023/05/13 00:47:42;;;;;;;9.20;6.93;;;;;;;9.69;100.00;101068.13;689452;28;1398;-61
2023/05/13 00:48:05;;;;;;;9.88;7.13;;;;;;;9.67;100.00;101062.91;683685;28;1689;-60
2023/05/13 00:48:26;;;;;;;9.80;6.97;;;;;;;9.67;100.00;101059.44;685163;28;1327;-60
2023/05/13 00:48:46;;;;;;;9.98;7.10;;;;;;;9.69;100.00;101060.31;685283;28;1478;-61
2023/05/13 00:49:07;;;;;;;9.75;7.03;;;;;;;9.68;100.00;101056.84;680125;28;4572;-61
2023/05/13 00:49:28;;;;;;;10.13;6.77;;;;;;;9.68;100.00;101056.84;679487;28;1435;-61
2023/05/13 00:49:48;;;;;;;9.23;7.17;;;;;;;9.66;100.00;101055.97;682563;28;1621;-61
2023/05/13 00:50:10;;;;;;;8.80;7.03;;;;;;;9.67;100.00;101059.44;682786;28;1499;-62
2023/05/13 00:50:30;;;;;;;7.72;6.55;;;;;;;9.66;100.00;101057.69;684279;28;1574;-62
2023/05/13 00:50:51;;;;;;;8.50;7.00;;;;;;;9.72;100.00;101060.34;682078;29;1586;-61
2023/05/13 00:51:11;;;;;;;9.40;7.13;;;;;;;9.82;100.00;101059.50;682284;28;1412;-61
2023/05/13 00:51:33;;;;;;;8.27;6.80;;;;;;;9.92;100.00;101063.03;687045;28;1714;-62
2023/05/13 00:51:54;;;;;;;9.47;7.20;;;;;;;9.96;100.00;101054.34;685843;28;1469;-60
2023/05/13 00:52:16;;;;;;;8.82;7.35;;;;;;;9.99;100.00;101054.34;684822;28;4443;-60
2023/05/13 00:52:38;;;;;;;8.30;6.72;;;;;;;9.98;100.00;101060.47;684694;28;1505;-60
2023/05/13 00:52:59;;;;;;;9.10;6.88;;;;;;;9.94;100.00;101057.81;680640;28;1285;-60
2023/05/13 00:53:19;;;;;;;8.43;6.80;;;;;;;9.91;100.00;101057.81;681256;28;1326;-61
2023/05/13 00:53:41;;;;;;;8.38;6.72;;;;;;;9.87;100.00;101057.81;681158;29;1491;-59
2023/05/13 00:54:03;;;;;;;8.32;7.00;;;;;;;9.85;100.00;101058.66;680630;28;1506;-61
2023/05/13 00:54:24;;;;;;;8.50;6.95;;;;;;;9.83;100.00;101058.66;684616;28;1395;-59
2023/05/13 00:54:44;;;;;;;9.95;7.40;;;;;;;9.80;100.00;101056.03;688092;28;1501;-59
2023/05/13 00:55:06;;;;;;;9.90;7.17;;;;;;;9.78;100.00;101060.34;686539;28;4475;-60
2023/05/13 00:55:26;;;;;;;8.98;6.88;;;;;;;9.77;100.00;101056.00;687669;28;1518;-60
2023/05/13 00:55:50;;;;;;;10.40;6.93;;;;;;;9.77;100.00;101061.22;687445;28;1418;-61
2023/05/13 00:56:10;;;;;;;9.98;6.88;;;;;;;9.77;100.00;101061.22;686194;28;1287;-61
2023/05/13 00:56:31;;;;;;;8.20;6.80;;;;;;;9.73;100.00;101063.81;686850;28;1505;-61
2023/05/13 00:56:55;;;;;;;8.50;6.85;;;;;;;9.70;100.00;101056.84;687716;28;1502;-61
2023/05/13 00:57:15;;;;;;;7.85;6.53;;;;;;;9.68;100.00;101061.19;690232;28;1433;-62
2023/05/13 00:57:37;;;;;;;8.82;7.10;;;;;;;9.67;100.00;101056.81;690039;28;1508;-60
2023/05/13 00:57:57;;;;;;;8.27;6.90;;;;;;;9.67;100.00;101055.06;688919;28;1604;-60
2023/05/13 00:58:17;;;;;;;8.67;6.83;;;;;;;9.69;100.00;101057.69;689875;28;4356;-60
2023/05/13 00:58:38;;;;;;;11.00;7.20;;;;;;;9.65;100.00;101056.81;688594;28;1275;-60
2023/05/13 00:58:58;;;;;;;10.40;7.30;;;;;;;9.64;100.00;101051.59;685686;28;1987;-61
2023/05/13 00:59:20;;;;;;;9.00;7.18;;;;;;;9.64;100.00;101055.06;687634;28;1427;-60
2023/05/13 00:59:40;;;;;;;9.15;7.10;;;;;;;9.73;100.00;101054.22;689722;28;1635;-61
2023/05/13 01:00:02;;;;;;;9.45;6.93;;;;;;;9.78;100.00;101052.53;688739;28;1605;-61
2023/05/13 01:00:23;;;;;;;8.80;7.05;;;;;;;9.78;100.00;101060.34;689912;28;1314;-61
2023/05/13 01:00:56;;;;;;;9.27;7.30;;;;;;;9.75;100.00;101054.22;689519;28;1552;-60
2023/05/13 01:01:28;;;;;;;8.77;7.38;;;;;;;9.73;100.00;101053.38;689931;28;4340;-60
2023/05/13 01:02:09;;;;;;;9.77;7.38;;;;;;;9.69;100.00;101055.09;686330;28;1426;-60
2023/05/13 01:02:37;;;;;;;8.43;7.13;;;;;;;9.67;100.00;101054.22;687506;28;1414;-60
2023/05/13 01:03:18;;;;;;;8.63;6.97;;;;;;;9.68;100.00;101051.59;684808;28;1647;-60
2023/05/13 01:03:47;;;;;;;8.10;6.82;;;;;;;9.68;100.00;101055.97;687393;28;1303;-61
2023/05/13 01:04:19;;;;;;;8.88;6.80;;;;;;;9.67;100.00;101046.38;685497;28;4522;-62
2023/05/13 01:05:12;;;;;;;8.07;6.68;;;;;;;9.61;100.00;101054.16;686999;28;1536;-61
2023/05/13 01:05:50;;;;;;;8.90;7.45;;;;;;;9.60;100.00;101052.44;690278;28;1652;-60
2023/05/13 01:06:20;;;;;;;8.48;7.18;;;;;;;9.63;100.00;101050.69;688918;28;1551;-61
2023/05/13 01:06:59;;;;;;;8.50;7.00;;;;;;;9.67;100.00;101054.22;689370;28;1430;-60
2023/05/13 01:07:38;;;;;;;8.75;7.32;;;;;;;9.68;100.00;101046.38;689949;28;4395;-61
2023/05/13 01:08:04;;;;;;;8.45;6.75;;;;;;;9.67;100.00;101052.47;685300;28;1498;-61
2023/05/13 01:08:55;;;;;;;8.77;6.90;;;;;;;9.65;100.00;101048.09;687135;28;1497;-60
2023/05/13 01:09:31;;;;;;;8.32;6.88;;;;;;;9.65;100.00;101046.38;687123;28;1454;-61
2023/05/13 01:10:18;;;;;;;8.98;7.45;;;;;;;9.67;100.00;101049.00;685970;28;1558;-61
2023/05/13 01:10:39;;;;;;;9.15;6.97;;;;;;;9.67;100.00;101049.00;685785;28;4773;-61
2023/05/13 01:11:32;;;;;;;9.57;7.27;;;;;;;9.67;100.00;101049.00;685739;28;1470;-61
2023/05/13 01:11:54;;;;;;;9.00;7.05;;;;;;;9.68;100.00;101048.13;680349;28;1462;-60
2023/05/13 01:12:21;;;;;;;10.50;7.03;;;;;;;9.68;100.00;101048.13;685553;28;1315;-60
2023/05/13 01:12:45;;;;;;;12.32;7.13;;;;;;;9.70;100.00;101049.88;687167;28;1470;-60
2023/05/13 01:13:23;;;;;;;10.95;7.20;;;;;;;9.69;100.00;101048.13;684409;28;4405;-61
2023/05/13 01:13:47;;;;;;;9.00;6.97;;;;;;;9.70;100.00;101049.00;688425;28;1501;-60
2023/05/13 01:14:17;;;;;;;8.77;6.88;;;;;;;9.72;100.00;101047.28;685649;28;1364;-61
2023/05/13 01:14:48;;;;;;;11.45;7.18;;;;;;;9.76;100.00;101042.94;686790;28;1454;-60
2023/05/13 01:15:13;;;;;;;10.98;7.13;;;;;;;9.75;100.00;101046.41;685853;28;1786;-62
2023/05/13 01:15:46;;;;;;;9.85;6.97;;;;;;;9.75;100.00;101047.28;683917;28;2175;-61
2023/05/13 01:16:14;;;;;;;8.70;6.82;;;;;;;9.75;100.00;101049.91;683278;28;4445;-62
2023/05/13 01:17:00;;;;;;;9.90;7.63;;;;;;;9.82;100.00;101048.19;684532;28;1438;-60
2023/05/13 01:17:33;;;;;;;9.38;7.13;;;;;;;9.80;100.00;101044.69;681479;28;1253;-61
2023/05/13 01:18:04;;;;;;;8.80;7.15;;;;;;;9.78;100.00;101042.09;684208;28;1075;-60
2023/05/13 01:18:32;;;;;;;8.13;7.03;;;;;;;9.77;100.00;101042.94;683240;28;1404;-60
2023/05/13 01:18:57;;;;;;;9.93;7.47;;;;;;;9.79;100.00;101038.63;684414;28;1976;-60
2023/05/13 01:19:48;;;;;;;8.93;7.18;;;;;;;9.76;100.00;101042.94;683487;28;4445;-62
2023/05/13 01:20:09;;;;;;;9.82;7.20;;;;;;;9.75;100.00;101046.41;683128;28;1444;-60
2023/05/13 01:20:30;;;;;;;8.45;6.95;;;;;;;9.74;100.00;101044.69;687122;28;1403;-61
2023/05/13 01:20:53;;;;;;;8.98;6.97;;;;;;;9.76;100.00;101041.22;689639;28;1693;-60
2023/05/13 01:21:13;;;;;;;10.07;7.25;;;;;;;9.75;100.00;101044.69;686383;28;1465;-62
2023/05/13 01:21:35;;;;;;;10.27;7.20;;;;;;;9.76;100.00;101049.06;686581;28;1477;-61
2023/05/13 01:21:58;;;;;;;9.70;7.20;;;;;;;9.75;100.00;101051.63;685809;28;1530;-61
2023/05/13 01:22:18;;;;;;;8.23;7.10;;;;;;;9.84;100.00;101049.06;686609;28;4373;-60
2023/05/13 01:22:39;;;;;;;9.70;7.27;;;;;;;9.91;100.00;101047.34;686242;28;1375;-60
2023/05/13 01:22:59;;;;;;;9.43;6.93;;;;;;;9.86;100.00;101040.38;680556;28;1498;-60
2023/05/13 01:23:20;;;;;;;9.20;7.03;;;;;;;9.86;100.00;101047.34;679828;29;1392;-60
2023/05/13 01:23:40;;;;;;;8.35;7.03;;;;;;;9.86;100.00;101043.00;680195;28;1358;-60
2023/05/13 01:24:01;;;;;;;8.80;7.00;;;;;;;9.84;100.00;101047.34;679462;28;1717;-61
2023/05/13 01:24:21;;;;;;;10.55;7.20;;;;;;;9.82;100.00;101043.84;682641;28;1503;-61
2023/05/13 01:24:42;;;;;;;9.87;7.30;;;;;;;9.82;100.00;101037.75;679006;29;1400;-60
2023/05/13 01:25:02;;;;;;;9.02;6.90;;;;;;;9.80;100.00;101047.31;677675;29;1291;-63
2023/05/13 01:25:24;;;;;;;8.27;6.45;;;;;;;9.78;100.00;101047.31;681542;28;4801;-62
2023/05/13 01:25:45;;;;;;;8.68;6.70;;;;;;;9.78;100.00;101046.44;682092;28;1459;-60
2023/05/13 01:26:06;;;;;;;9.25;7.07;;;;;;;9.77;100.00;101042.94;683281;28;960;-61
2023/05/13 01:26:28;;;;;;;8.80;7.15;;;;;;;9.75;100.00;101042.06;682792;28;1651;-61
2023/05/13 01:26:48;;;;;;;8.68;7.10;;;;;;;9.75;100.00;101038.56;680400;28;1660;-61
2023/05/13 01:27:09;;;;;;;8.93;7.28;;;;;;;9.75;100.00;101042.06;682122;28;1859;-61
2023/05/13 01:27:29;;;;;;;9.47;7.07;;;;;;;9.76;100.00;101042.94;683001;28;1848;-61
2023/05/13 01:27:51;;;;;;;9.52;7.00;;;;;;;9.75;100.00;101044.69;683016;28;1514;-62
2023/05/13 01:28:12;;;;;;;11.60;7.22;;;;;;;9.76;100.00;101042.94;682607;28;4661;-61
2023/05/13 01:28:35;;;;;;;8.77;7.22;;;;;;;9.75;100.00;101047.28;682153;28;1466;-61
2023/05/13 01:28:56;;;;;;;8.88;7.00;;;;;;;9.75;100.00;101042.06;677551;28;1502;-60
2023/05/13 01:29:17;;;;;;;10.23;7.63;;;;;;;9.74;100.00;101037.72;682705;28;1466;-59
2023/05/13 01:29:39;;;;;;;9.77;6.93;;;;;;;9.74;100.00;101048.16;681336;28;1556;-61
2023/05/13 01:30:00;;;;;;;8.30;6.40;;;;;;;9.75;100.00;101043.78;681542;28;1509;-60
2023/05/13 01:30:28;;;;;;;8.85;7.03;;;;;;;9.74;100.00;101040.31;685867;28;2195;-60
2023/05/13 01:30:48;;;;;;;8.68;7.05;;;;;;;9.73;100.00;101037.72;682760;28;1412;-60
2023/05/13 01:31:09;;;;;;;8.38;6.68;;;;;;;9.73;100.00;101035.09;682947;28;4480;-61
2023/05/13 01:31:34;;;;;;;9.07;6.47;;;;;;;9.73;100.00;101038.56;685506;28;1423;-61
2023/05/13 01:31:57;;;;;;;7.82;6.50;;;;;;;9.71;100.00;101046.41;679276;28;1483;-60
2023/05/13 01:32:18;;;;;;;8.20;6.57;;;;;;;9.68;100.00;101041.16;681561;29;1404;-60
2023/05/13 01:32:39;;;;;;;8.82;7.18;;;;;;;9.67;100.00;101039.41;681826;29;1348;-61
2023/05/13 01:33:00;;;;;;;8.07;6.65;;;;;;;9.65;100.00;101038.56;683080;28;1604;-60
2023/05/13 01:33:20;;;;;;;8.75;6.75;;;;;;;9.65;100.00;101037.66;683823;28;1461;-62
2023/05/13 01:33:42;;;;;;;8.97;7.20;;;;;;;9.67;100.00;101039.41;684754;28;1415;-60
2023/05/13 01:34:04;;;;;;;8.65;6.93;;;;;;;9.72;100.00;101044.69;685797;28;4780;-61
2023/05/13 01:34:26;;;;;;;8.20;6.68;;;;;;;9.72;100.00;101036.84;687097;28;1450;-62
2023/05/13 01:34:50;;;;;;;8.02;6.88;;;;;;;9.71;100.00;101035.09;684304;28;3628;-60
2023/05/13 01:35:11;;;;;;;8.38;6.85;;;;;;;9.69;100.00;101039.41;682234;28;1415;-61
2023/05/13 01:35:36;;;;;;;8.60;7.18;;;;;;;9.71;100.00;101042.94;684238;28;1654;-60
2023/05/13 01:35:57;;;;;;;9.27;7.28;;;;;;;9.74;100.00;101031.63;682442;28;1505;-60
2023/05/13 01:36:19;;;;;;;7.85;6.85;;;;;;;9.73;100.00;101041.19;686952;28;1445;-60
2023/05/13 01:36:42;;;;;;;8.43;7.00;;;;;;;9.74;100.00;101044.69;688463;28;1468;-60
2023/05/13 01:37:03;;;;;;;8.15;7.03;;;;;;;9.71;100.00;101041.19;684423;28;1444;-61
2023/05/13 01:37:24;;;;;;;8.15;7.30;;;;;;;9.68;100.00;101038.56;685446;28;4871;-61
2023/05/13 01:37:47;;;;;;;8.93;7.45;;;;;;;9.67;100.00;101044.63;683388;28;1536;-60
2023/05/13 01:38:08;;;;;;;8.80;7.32;;;;;;;9.65;100.00;101043.78;680502;28;1641;-61
2023/05/13 01:38:30;;;;;;;9.63;7.53;;;;;;;9.65;100.00;101041.16;683400;28;1411;-60
2023/05/13 01:38:54;;;;;;;9.25;7.43;;;;;;;9.67;100.00;101039.41;685515;28;1922;-60
2023/05/13 01:39:18;;;;;;;8.73;7.18;;;;;;;9.68;100.00;101042.91;681516;29;1725;-60
2023/05/13 01:39:40;;;;;;;8.77;7.70;;;;;;;9.63;100.00;101035.03;686676;28;1639;-60
2023/05/13 01:40:06;;;;;;;9.27;7.32;;;;;;;9.61;100.00;101043.72;682022;28;4410;-61
2023/05/13 01:40:28;;;;;;;8.95;7.07;;;;;;;9.59;100.00;101040.25;686882;28;1482;-61
2023/05/13 01:40:49;;;;;;;8.40;6.55;;;;;;;9.58;100.00;101035.88;687102;28;2153;-61
2023/05/13 01:41:10;;;;;;;10.23;7.15;;;;;;;9.54;100.00;101046.31;683778;28;1432;-61
2023/05/13 01:41:30;;;;;;;10.10;7.55;;;;;;;9.50;100.00;101044.56;683874;28;1554;-60
2023/05/13 01:41:51;;;;;;;9.30;7.32;;;;;;;9.49;100.00;101039.31;684647;28;1598;-60
2023/05/13 01:42:11;;;;;;;9.50;7.10;;;;;;;9.52;100.00;101041.94;682817;28;5279;-60
2023/05/13 01:42:33;;;;;;;8.70;7.23;;;;;;;9.54;100.00;101048.06;684899;28;1589;-60
2023/05/13 01:42:54;;;;;;;8.40;7.28;;;;;;;9.54;100.00;101042.84;684633;28;1403;-61
2023/05/13 01:43:14;;;;;;;9.38;6.90;;;;;;;9.54;100.00;101037.63;685883;28;4404;-60
2023/05/13 01:43:35;;;;;;;9.40;7.00;;;;;;;9.53;100.00;101038.47;687380;28;1415;-60
2023/05/13 01:43:56;;;;;;;9.82;7.35;;;;;;;9.52;100.00;101039.34;686014;28;1406;-61
2023/05/13 01:44:16;;;;;;;8.82;7.20;;;;;;;9.50;100.00;101035.88;687056;28;1458;-60
2023/05/13 01:44:37;;;;;;;9.30;7.22;;;;;;;9.49;100.00;101045.41;686243;28;1418;-61
2023/05/13 01:44:58;;;;;;;9.40;7.03;;;;;;;9.49;100.00;101040.19;685524;28;1307;-61
2023/05/13 01:45:18;;;;;;;8.85;6.85;;;;;;;9.47;100.00;101041.94;687402;28;1474;-61
2023/05/13 01:45:40;;;;;;;7.83;6.70;;;;;;;9.46;100.00;101044.53;686619;28;1454;-61
2023/05/13 01:46:01;;;;;;;8.90;7.10;;;;;;;9.42;100.00;101043.63;684405;28;1570;-60
2023/05/13 01:46:21;;;;;;;9.73;7.32;;;;;;;9.45;100.00;101048.88;688945;28;4483;-61
2023/05/13 01:46:42;;;;;;;10.17;6.93;;;;;;;9.45;100.00;101048.00;689454;28;1239;-61
2023/05/13 01:47:03;;;;;;;9.23;7.05;;;;;;;9.42;100.00;101043.63;685852;28;1387;-61
2023/05/13 01:47:23;;;;;;;9.07;6.95;;;;;;;9.39;100.00;101048.84;687171;28;1461;-62